createdAt,value
2019-03-02T00:02:25.497Z,55.72
2019-03-02T00:04:57.046Z,56.00
2019-03-02T00:07:28.474Z,56.24
2019-03-02T00:09:59.801Z,56.69
2019-03-02T00:12:32.150Z,56.88
2019-03-02T00:15:05.840Z,57.94
2019-03-02T00:17:37.508Z,58.69
2019-03-02T00:20:09.116Z,60.47
2019-03-02T00:22:43.449Z,60.50
2019-03-02T00:25:13.931Z,60.58
2019-03-02T00:27:45.367Z,59.87
2019-03-02T00:30:17.764Z,59.91
2019-03-02T00:32:50.252Z,60.72
2019-03-02T00:35:22.025Z,60.20
2019-03-02T00:37:53.415Z,59.90
2019-03-02T00:40:27.135Z,60.16
2019-03-02T00:42:58.516Z,60.06
2019-03-02T00:45:29.945Z,59.31
2019-03-02T00:48:01.427Z,58.87
2019-03-02T00:50:33.657Z,58.76
2019-03-02T00:53:06.323Z,59.29
2019-03-02T00:55:37.638Z,59.00
2019-03-02T00:58:09.113Z,59.38
2019-03-02T01:00:40.665Z,59.51
2019-03-02T01:03:15.410Z,60.40
2019-03-02T01:05:45.222Z,60.37
2019-03-02T01:08:16.703Z,59.98
2019-03-02T01:10:48.456Z,60.51
2019-03-02T01:13:22.951Z,60.11
2019-03-02T01:15:53.015Z,60.64
2019-03-02T01:18:24.877Z,60.29
2019-03-02T01:20:56.688Z,61.36
2019-03-02T01:23:28.841Z,60.73
2019-03-02T01:26:00.121Z,60.45
2019-03-02T01:28:31.515Z,60.32
2019-03-02T01:31:05.149Z,60.70
2019-03-02T01:33:36.129Z,60.53
2019-03-02T01:36:07.759Z,60.17
2019-03-02T01:38:38.997Z,60.07
2019-03-02T01:41:10.449Z,60.65
2019-03-02T01:43:41.902Z,60.53
2019-03-02T01:46:13.482Z,59.76
2019-03-02T01:48:44.958Z,60.09
2019-03-02T01:51:16.201Z,59.34
2019-03-02T01:53:47.720Z,59.03
2019-03-02T01:56:19.227Z,59.05
2019-03-02T01:58:50.808Z,58.95
2019-03-02T02:01:24.746Z,59.71
2019-03-02T02:03:55.372Z,59.81
2019-03-02T02:06:27.034Z,59.65
2019-03-02T02:09:01.789Z,58.80
2019-03-02T02:11:33.135Z,59.06
2019-03-02T02:14:04.852Z,58.77
2019-03-02T02:16:38.869Z,58.96
2019-03-02T02:19:09.711Z,58.63
2019-03-02T02:21:41.108Z,58.16
2019-03-02T02:24:12.437Z,57.97
2019-03-02T02:26:46.593Z,58.20
2019-03-02T02:29:17.049Z,58.03
2019-03-02T02:31:48.674Z,58.27
2019-03-02T02:34:22.202Z,58.18
2019-03-02T02:36:58.330Z,58.05
2019-03-02T02:39:28.931Z,57.43
2019-03-02T02:42:00.077Z,57.10
2019-03-02T02:44:33.140Z,56.87
2019-03-02T02:47:07.094Z,57.02
2019-03-02T02:49:38.729Z,56.74
2019-03-02T02:52:10.167Z,57.10
2019-03-02T02:54:41.397Z,56.88
2019-03-02T02:57:12.838Z,57.07
2019-03-02T02:59:44.500Z,57.22
2019-03-02T03:02:15.884Z,56.79
2019-03-02T03:04:47.297Z,56.73
2019-03-02T03:07:19.025Z,56.99
2019-03-02T03:10:04.565Z,56.60
2019-03-02T03:12:36.303Z,56.35
2019-03-02T03:15:07.788Z,56.69
2019-03-02T03:17:39.522Z,56.39
2019-03-02T03:20:12.031Z,56.47
2019-03-02T03:22:46.078Z,56.85
2019-03-02T03:25:18.029Z,56.67
2019-03-02T03:27:52.095Z,56.67
2019-03-02T03:30:35.387Z,56.67
2019-03-02T03:32:59.532Z,56.49
2019-03-02T03:35:29.808Z,56.67
2019-03-02T03:38:01.306Z,56.60
2019-03-02T03:40:32.910Z,57.28
2019-03-02T03:43:04.814Z,56.68
2019-03-02T03:45:42.479Z,56.30
2019-03-02T03:48:12.891Z,56.20
2019-03-02T03:50:48.074Z,56.26
2019-03-02T03:53:17.178Z,55.99
2019-03-02T03:55:48.661Z,55.85
2019-03-02T03:58:20.117Z,55.70
2019-03-02T04:00:51.556Z,56.07
2019-03-02T04:03:23.251Z,56.20
2019-03-02T04:05:54.744Z,56.24
2019-03-02T04:08:28.850Z,56.20
2019-03-02T04:11:00.245Z,56.14
2019-03-02T04:13:32.715Z,55.64
2019-03-02T04:16:04.103Z,56.14
2019-03-02T04:18:55.093Z,56.12
2019-03-02T04:21:31.922Z,56.21
2019-03-02T04:24:03.586Z,55.98
2019-03-02T04:26:36.395Z,56.10
2019-03-02T04:29:09.856Z,55.68
2019-03-02T04:31:44.029Z,55.54
2019-03-02T04:34:20.608Z,56.00
2019-03-02T04:36:49.220Z,57.16
2019-03-02T04:39:20.663Z,57.57
2019-03-02T04:41:51.997Z,58.01
2019-03-02T04:44:25.750Z,58.32
2019-03-02T04:46:56.526Z,58.29
2019-03-02T04:49:28.342Z,58.27
2019-03-02T04:51:59.753Z,57.91
2019-03-02T04:54:37.431Z,58.05
2019-03-02T04:57:04.649Z,57.97
2019-03-02T04:59:36.303Z,58.51
2019-03-02T05:02:07.748Z,58.47
2019-03-02T05:04:39.247Z,58.27
2019-03-02T05:07:10.792Z,58.36
2019-03-02T05:09:42.448Z,58.27
2019-03-02T05:12:15.535Z,58.75
2019-03-02T05:14:47.108Z,58.98
2019-03-02T05:17:18.635Z,58.40
2019-03-02T05:19:50.351Z,58.63
2019-03-02T05:22:21.766Z,58.81
2019-03-02T05:24:53.285Z,59.22
2019-03-02T05:27:24.648Z,59.59
2019-03-02T05:29:56.163Z,59.47
2019-03-02T05:32:27.878Z,59.00
2019-03-02T05:34:59.372Z,59.10
2019-03-02T05:37:31.074Z,58.75
2019-03-02T05:40:02.421Z,58.88
2019-03-02T05:42:33.803Z,58.81
2019-03-02T05:45:05.773Z,58.66
2019-03-02T05:47:37.487Z,58.76
2019-03-02T05:50:09.606Z,58.37
2019-03-02T05:52:40.941Z,58.55
2019-03-02T05:55:14.213Z,58.20
2019-03-02T05:57:45.587Z,57.84
2019-03-02T06:00:18.317Z,57.15
2019-03-02T06:02:49.643Z,57.86
2019-03-02T06:05:21.165Z,56.87
2019-03-02T06:07:53.831Z,57.01
2019-03-02T06:10:26.383Z,57.03
2019-03-02T06:12:57.735Z,56.69
2019-03-02T06:15:29.343Z,56.98
2019-03-02T06:18:00.664Z,57.23
2019-03-02T06:20:32.554Z,57.18
2019-03-02T06:23:05.365Z,57.11
2019-03-02T06:25:37.948Z,56.85
2019-03-02T06:28:09.492Z,57.08
2019-03-02T06:30:44.130Z,57.37
2019-03-02T06:33:24.275Z,56.94
2019-03-02T06:35:55.829Z,57.34
2019-03-02T06:38:28.849Z,57.54
2019-03-02T06:41:00.344Z,57.31
2019-03-02T06:43:31.216Z,57.12
2019-03-02T06:46:02.247Z,57.16
2019-03-02T06:48:33.138Z,57.60
2019-03-02T06:51:04.144Z,57.75
2019-03-02T06:53:37.137Z,58.13
2019-03-02T06:56:08.036Z,58.15
2019-03-02T06:58:39.060Z,57.96
2019-03-02T07:01:11.261Z,57.84
2019-03-02T07:03:42.918Z,58.17
2019-03-02T07:06:14.932Z,58.40
2019-03-02T07:08:46.191Z,59.04
2019-03-02T07:11:17.229Z,59.02
2019-03-02T07:13:48.448Z,58.71
2019-03-02T07:16:20.121Z,58.53
2019-03-02T07:19:13.446Z,58.60
2019-03-02T07:21:53.150Z,58.88
2019-03-02T07:24:25.945Z,58.35
2019-03-02T07:26:57.165Z,58.11
2019-03-02T07:29:28.760Z,58.26
2019-03-02T07:32:00.066Z,57.67
2019-03-02T07:34:31.661Z,57.68
2019-03-02T07:37:05.826Z,57.82
2019-03-02T07:39:36.871Z,57.13
2019-03-02T07:42:08.493Z,56.94
2019-03-02T07:44:39.739Z,57.12
2019-03-02T07:47:11.129Z,57.14
2019-03-02T07:49:42.369Z,56.97
2019-03-02T07:52:17.192Z,56.58
2019-03-02T07:54:57.779Z,56.25
2019-03-02T07:57:20.385Z,56.04
2019-03-02T07:59:51.953Z,56.40
2019-03-02T08:02:25.712Z,56.14
2019-03-02T08:04:57.002Z,55.78
2019-03-02T08:07:28.221Z,55.46
2019-03-02T08:10:02.123Z,55.29
2019-03-02T08:12:32.929Z,54.63
2019-03-02T08:15:04.575Z,54.43
2019-03-02T08:17:36.160Z,54.77
2019-03-02T08:20:08.988Z,54.17
2019-03-02T08:22:42.705Z,53.13
2019-03-02T08:25:14.103Z,51.85
2019-03-02T08:27:45.161Z,50.55
2019-03-02T08:30:18.077Z,50.38
2019-03-02T08:32:49.611Z,50.30
2019-03-02T08:35:21.021Z,49.97
2019-03-02T08:37:52.643Z,49.15
2019-03-02T08:40:24.588Z,48.82
2019-03-02T08:42:57.059Z,47.64
2019-03-02T08:45:30.983Z,45.66
2019-03-02T08:48:01.262Z,45.05
2019-03-02T08:50:33.273Z,45.99
2019-03-02T08:53:04.485Z,45.54
2019-03-02T08:55:35.946Z,45.16
2019-03-02T08:58:07.394Z,45.41
2019-03-02T09:00:38.971Z,46.22
2019-03-02T09:03:11.108Z,45.60
2019-03-02T09:05:46.945Z,45.01
2019-03-02T09:08:15.255Z,44.70
2019-03-02T09:10:49.227Z,44.58
2019-03-02T09:13:19.480Z,43.48
2019-03-02T09:15:50.827Z,43.01
2019-03-02T09:18:22.537Z,43.78
2019-03-02T09:20:54.105Z,44.49
2019-03-02T09:23:25.570Z,43.71
2019-03-02T09:25:56.720Z,42.50
2019-03-02T09:28:27.859Z,42.55
2019-03-02T09:31:01.995Z,42.55
2019-03-02T09:33:32.080Z,41.83
2019-03-02T09:36:03.255Z,42.58
2019-03-02T09:38:34.498Z,42.97
2019-03-02T09:41:05.812Z,43.52
2019-03-02T09:43:36.894Z,44.73
2019-03-02T09:46:07.886Z,44.44
2019-03-02T09:48:38.982Z,43.43
2019-03-02T09:51:10.004Z,42.49
2019-03-02T09:53:43.671Z,41.18
2019-03-02T09:56:16.176Z,43.00
2019-03-02T09:58:47.618Z,43.29
2019-03-02T10:01:18.996Z,43.48
2019-03-02T10:03:51.554Z,43.58
2019-03-02T10:06:25.303Z,42.93
2019-03-02T10:08:55.597Z,42.17
2019-03-02T10:11:26.556Z,41.83
2019-03-02T10:13:57.677Z,42.74
2019-03-02T10:16:28.584Z,42.74
2019-03-02T10:18:59.989Z,42.15
2019-03-02T10:21:31.267Z,42.15
2019-03-02T10:24:02.561Z,41.66
2019-03-02T10:26:33.654Z,42.10
2019-03-02T10:29:06.800Z,42.90
2019-03-02T10:31:40.658Z,42.07
2019-03-02T10:34:11.178Z,42.07
2019-03-02T10:36:42.387Z,41.23
2019-03-02T10:39:13.805Z,41.23
2019-03-02T10:41:44.891Z,40.53
2019-03-02T10:44:17.810Z,40.53
2019-03-02T10:46:48.624Z,40.63
2019-03-02T10:49:19.927Z,41.60
2019-03-02T10:51:51.297Z,41.25
2019-03-02T10:54:22.417Z,40.46
2019-03-02T10:56:56.681Z,40.46
2019-03-02T10:59:26.609Z,40.69
2019-03-02T11:01:57.679Z,41.57
2019-03-02T11:04:46.227Z,41.57
2019-03-02T11:07:44.915Z,41.82
2019-03-02T11:10:37.119Z,43.49
2019-03-02T11:13:15.992Z,43.94
2019-03-02T11:16:05.174Z,42.97
2019-03-02T11:18:50.231Z,43.55
2019-03-02T11:21:35.457Z,41.40
2019-03-02T11:24:25.694Z,41.40
2019-03-02T11:27:27.970Z,39.96
2019-03-02T11:30:12.508Z,40.74
2019-03-02T11:33:03.127Z,39.79
2019-03-02T11:36:02.716Z,40.73
2019-03-02T11:38:52.630Z,40.73
2019-03-02T11:41:51.720Z,40.11
2019-03-02T11:44:41.649Z,39.56
2019-03-02T11:47:20.920Z,38.29
2019-03-02T11:50:20.178Z,38.45
2019-03-02T11:53:12.741Z,38.39
2019-03-02T11:56:03.001Z,38.39
2019-03-02T11:58:58.943Z,38.43
2019-03-02T12:01:58.719Z,38.46
2019-03-02T12:04:55.751Z,39.55
2019-03-02T12:07:45.522Z,39.76
2019-03-02T12:10:35.526Z,40.05
2019-03-02T12:13:20.253Z,38.64
2019-03-02T12:16:02.996Z,37.17
2019-03-02T12:18:43.541Z,37.17
2019-03-02T12:21:48.816Z,37.08
2019-03-02T12:24:29.579Z,37.05
2019-03-02T12:27:23.701Z,38.16
2019-03-02T12:30:04.756Z,37.59
2019-03-02T12:33:04.397Z,37.59
2019-03-02T12:36:12.463Z,38.21
2019-03-02T12:38:49.509Z,38.38
2019-03-02T12:41:42.799Z,38.23
2019-03-02T12:44:33.056Z,39.27
2019-03-02T12:47:23.085Z,40.29
2019-03-02T12:50:18.982Z,40.51
2019-03-02T12:53:08.123Z,38.88
2019-03-02T12:55:57.699Z,39.73
2019-03-02T12:58:51.417Z,40.81
2019-03-02T13:01:37.670Z,41.45
2019-03-02T13:04:18.239Z,41.15
2019-03-02T13:07:10.374Z,40.83
2019-03-02T13:09:49.894Z,41.05
2019-03-02T13:12:51.845Z,40.69
2019-03-02T13:15:42.268Z,39.98
2019-03-02T13:18:47.012Z,39.63
2019-03-02T13:21:26.199Z,38.56
2019-03-02T13:24:06.941Z,37.92
2019-03-02T13:27:09.560Z,37.11
2019-03-02T13:29:56.340Z,37.01
2019-03-02T13:32:56.082Z,36.16
2019-03-02T13:36:00.171Z,36.57
2019-03-02T13:38:33.626Z,36.91
2019-03-02T13:41:18.993Z,38.08
2019-03-02T13:44:12.523Z,37.89
2019-03-02T13:46:59.629Z,38.45
2019-03-02T13:49:52.356Z,38.13
2019-03-02T13:52:43.190Z,38.04
2019-03-02T13:55:37.991Z,38.14
2019-03-02T13:58:31.354Z,38.46
2019-03-02T14:01:30.943Z,39.34
2019-03-02T14:04:30.493Z,39.50
2019-03-02T14:07:20.183Z,39.72
2019-03-02T14:10:09.780Z,40.04
2019-03-02T14:12:54.300Z,39.46
2019-03-02T14:15:45.510Z,39.13
2019-03-02T14:18:38.886Z,39.28
2019-03-02T14:21:29.076Z,39.18
2019-03-02T14:24:10.319Z,38.17
2019-03-02T14:27:00.468Z,37.92
2019-03-02T14:29:53.107Z,38.15
2019-03-02T14:32:38.422Z,38.52
2019-03-02T14:35:27.935Z,38.54
2019-03-02T14:38:20.211Z,38.47
2019-03-02T14:41:01.635Z,38.11
2019-03-02T14:43:39.571Z,38.25
2019-03-02T14:46:44.470Z,38.26
2019-03-02T14:49:32.004Z,39.00
2019-03-02T14:52:12.901Z,39.99
2019-03-02T14:55:05.726Z,39.98
2019-03-02T14:57:49.048Z,40.06
2019-03-02T15:00:30.630Z,39.60
2019-03-02T15:03:20.678Z,39.65
2019-03-02T15:06:19.829Z,39.06
2019-03-02T15:08:58.208Z,38.55
2019-03-02T15:11:48.325Z,39.57
2019-03-02T15:14:38.421Z,39.57
2019-03-02T15:17:37.115Z,39.82
2019-03-02T15:20:36.327Z,40.30
2019-03-02T15:23:35.197Z,41.14
2019-03-02T15:26:14.218Z,41.86
2019-03-02T15:28:54.745Z,41.21
2019-03-02T15:31:44.619Z,41.21
2019-03-02T15:34:49.926Z,41.12
2019-03-02T15:37:38.609Z,41.44
2019-03-02T15:40:17.482Z,41.98
2019-03-02T15:43:06.558Z,41.75
2019-03-02T15:45:55.433Z,42.18
2019-03-02T15:48:48.146Z,41.91
2019-03-02T15:51:49.465Z,42.01
2019-03-02T15:54:38.285Z,42.30
2019-03-02T15:57:15.811Z,42.59
2019-03-02T16:00:04.739Z,42.60
2019-03-02T16:03:05.772Z,42.52
2019-03-02T16:05:54.660Z,42.52
2019-03-02T16:08:56.700Z,43.19
2019-03-02T16:11:45.067Z,43.17
2019-03-02T16:14:36.344Z,43.12
2019-03-02T16:17:25.731Z,42.88
2019-03-02T16:20:18.444Z,43.07
2019-03-02T16:22:54.071Z,42.98
2019-03-02T16:25:44.579Z,43.36
2019-03-02T16:28:34.490Z,43.47
2019-03-02T16:31:15.578Z,43.64
2019-03-02T16:34:14.701Z,43.83
2019-03-02T16:37:23.419Z,43.86
2019-03-02T16:40:11.582Z,44.28
2019-03-02T16:43:08.110Z,44.31
2019-03-02T16:45:54.446Z,44.10
2019-03-02T16:48:48.171Z,44.29
2019-03-02T16:51:36.616Z,44.12
2019-03-02T16:54:30.009Z,44.79
2019-03-02T16:57:14.677Z,44.33
2019-03-02T16:59:59.304Z,45.16
2019-03-02T17:02:45.406Z,44.72
2019-03-02T17:05:34.127Z,45.06
2019-03-02T17:08:14.502Z,45.24
2019-03-02T17:11:10.844Z,45.64
2019-03-02T17:14:15.107Z,45.19
2019-03-02T17:16:59.154Z,45.23
2019-03-02T17:19:40.788Z,45.74
2019-03-02T17:22:18.341Z,46.02
2019-03-02T17:24:56.391Z,46.23
2019-03-02T17:27:39.898Z,45.86
2019-03-02T17:30:24.964Z,45.83
2019-03-02T17:33:09.279Z,45.85
2019-03-02T17:36:11.725Z,46.32
2019-03-02T17:39:07.957Z,45.90
2019-03-02T17:42:01.744Z,45.48
2019-03-02T17:45:01.150Z,46.48
2019-03-02T17:48:03.627Z,46.48
2019-03-02T17:50:44.382Z,46.70
2019-03-02T17:53:40.535Z,46.52
2019-03-02T17:56:27.816Z,46.84
2019-03-02T17:59:20.863Z,46.79
2019-03-02T18:02:09.834Z,46.78
2019-03-02T18:04:58.512Z,47.24
2019-03-02T18:08:08.726Z,47.40
2019-03-02T18:11:14.810Z,47.89
2019-03-02T18:13:57.900Z,47.37
2019-03-02T18:16:46.435Z,47.79
2019-03-02T18:19:18.242Z,48.16
2019-03-02T18:21:50.153Z,48.05
2019-03-02T18:24:21.818Z,48.10
2019-03-02T18:26:56.963Z,48.04
2019-03-02T18:29:29.428Z,48.22
2019-03-02T18:32:02.303Z,48.24
2019-03-02T18:34:33.651Z,48.62
2019-03-02T18:37:06.045Z,49.40
2019-03-02T18:39:38.576Z,49.58
2019-03-02T18:42:10.020Z,49.95
2019-03-02T18:44:41.370Z,50.44
2019-03-02T18:47:12.780Z,49.96
2019-03-02T18:50:09.265Z,50.16
2019-03-02T18:53:18.175Z,50.46
2019-03-02T18:55:49.467Z,50.15
2019-03-02T18:58:24.092Z,50.33
2019-03-02T19:00:57.376Z,50.55
2019-03-02T19:03:27.149Z,50.80
2019-03-02T19:05:58.772Z,50.84
2019-03-02T19:08:30.507Z,50.88
2019-03-02T19:11:01.898Z,51.18
2019-03-02T19:13:33.164Z,50.68
2019-03-02T19:16:04.696Z,50.90
2019-03-02T19:18:36.195Z,50.68
2019-03-02T19:21:07.788Z,51.23
2019-03-02T19:23:39.444Z,51.25
2019-03-02T19:26:11.022Z,51.23
2019-03-02T19:28:42.389Z,51.36
2019-03-02T19:31:13.892Z,51.62
2019-03-02T19:33:45.441Z,51.91
2019-03-02T19:36:17.142Z,52.22
2019-03-02T19:38:48.785Z,52.40
2019-03-02T19:41:20.263Z,52.11
2019-03-02T19:43:51.643Z,52.38
2019-03-02T19:46:23.046Z,52.30
2019-03-02T19:48:54.406Z,52.05
2019-03-02T19:51:25.946Z,52.42
2019-03-02T19:53:58.417Z,52.56
2019-03-02T19:56:29.923Z,52.31
2019-03-02T19:59:01.265Z,52.26
2019-03-02T20:01:33.247Z,52.76
2019-03-02T20:04:05.944Z,52.43
2019-03-02T20:06:37.718Z,52.42
2019-03-02T20:09:09.713Z,52.54
2019-03-02T20:11:41.949Z,52.55
2019-03-02T20:14:14.000Z,52.76
2019-03-02T20:16:46.210Z,52.82
2019-03-02T20:19:18.047Z,52.60
2019-03-02T20:21:49.894Z,52.59
2019-03-02T20:24:21.583Z,52.82
2019-03-02T20:26:53.440Z,52.79
2019-03-02T20:29:25.114Z,53.16
2019-03-02T20:31:56.818Z,53.21
2019-03-02T20:34:28.572Z,53.32
2019-03-02T20:37:00.775Z,53.11
2019-03-02T20:39:33.164Z,52.99
2019-03-02T20:42:05.070Z,53.01
2019-03-02T20:44:37.084Z,53.02
2019-03-02T20:47:08.672Z,53.70
2019-03-02T20:49:40.289Z,53.55
2019-03-02T20:52:11.736Z,53.94
2019-03-02T20:54:43.372Z,53.80
2019-03-02T20:57:14.822Z,54.02
2019-03-02T20:59:46.319Z,54.17
2019-03-02T21:02:17.872Z,53.99
2019-03-02T21:04:49.595Z,53.95
2019-03-02T21:07:21.165Z,54.08
2019-03-02T21:09:52.801Z,54.55
2019-03-02T21:12:25.480Z,55.02
2019-03-02T21:14:57.539Z,54.88
2019-03-02T21:17:29.535Z,55.11
2019-03-02T21:20:00.920Z,55.28
2019-03-02T21:22:34.608Z,54.96
2019-03-02T21:25:07.046Z,55.09
2019-03-02T21:27:38.589Z,55.63
2019-03-02T21:30:12.087Z,55.79
2019-03-02T21:32:43.281Z,55.51
2019-03-02T21:35:14.670Z,55.50
2019-03-02T21:37:46.136Z,55.73
2019-03-02T21:40:19.668Z,56.00
2019-03-02T21:42:51.020Z,55.91
2019-03-02T21:45:23.138Z,55.90
2019-03-02T21:47:54.903Z,55.97
2019-03-02T21:50:27.832Z,56.00
2019-03-02T21:52:59.350Z,56.35
2019-03-02T21:55:30.653Z,56.09
2019-03-02T21:58:02.373Z,56.26
2019-03-02T22:00:34.901Z,56.60
2019-03-02T22:03:06.671Z,56.54
2019-03-02T22:05:38.433Z,56.44
2019-03-02T22:08:09.914Z,56.51
2019-03-02T22:10:50.712Z,56.56
2019-03-02T22:13:22.354Z,56.41
2019-03-02T22:15:54.598Z,56.64
2019-03-02T22:18:25.846Z,56.34
2019-03-02T22:20:57.160Z,56.13
2019-03-02T22:23:28.611Z,56.26
2019-03-02T22:26:00.202Z,56.84
2019-03-02T22:28:31.510Z,55.98
2019-03-02T22:31:03.021Z,56.25
2019-03-02T22:33:34.564Z,56.70
2019-03-02T22:36:06.154Z,56.63
2019-03-02T22:38:37.633Z,56.57
2019-03-02T22:41:08.927Z,56.48
2019-03-02T22:43:40.248Z,56.47
2019-03-02T22:46:11.859Z,56.08
2019-03-02T22:48:43.490Z,56.32
2019-03-02T22:51:14.991Z,56.87
2019-03-02T22:53:46.535Z,57.13
2019-03-02T22:56:17.984Z,57.23
2019-03-02T22:58:48.081Z,57.30
2019-03-02T23:01:47.438Z,57.34
2019-03-02T23:04:18.747Z,57.34
2019-03-02T23:06:50.086Z,57.81
2019-03-02T23:09:21.634Z,57.71
2019-03-02T23:11:53.252Z,57.94
2019-03-02T23:14:25.779Z,58.39
2019-03-02T23:16:57.180Z,58.87
2019-03-02T23:19:28.642Z,59.10
2019-03-02T23:22:01.303Z,59.59
2019-03-02T23:24:32.893Z,59.67
2019-03-02T23:27:04.516Z,59.57
2019-03-02T23:29:35.766Z,59.82
2019-03-02T23:32:07.443Z,59.65
2019-03-02T23:34:38.922Z,59.94
2019-03-02T23:37:10.290Z,60.28
2019-03-02T23:39:41.720Z,60.51
2019-03-02T23:42:13.244Z,60.71
2019-03-02T23:44:45.102Z,61.51
2019-03-02T23:47:16.671Z,62.00
2019-03-02T23:49:48.190Z,63.91
2019-03-02T23:52:19.864Z,64.46
2019-03-02T23:54:51.395Z,64.81
2019-03-02T23:57:23.690Z,65.31
2019-03-02T23:59:55.311Z,65.60
